createdAt,value
2022-08-07T00:02:36.062Z,100682.38
2022-08-07T00:04:45.356Z,100678.81
2022-08-07T00:07:48.495Z,100678.72
2022-08-07T00:11:01.141Z,100691.47
2022-08-07T00:14:08.982Z,100693.38
2022-08-07T00:17:13.827Z,100692.47
2022-08-07T00:20:29.867Z,100688.13
2022-08-07T00:23:39.635Z,100678.44
2022-08-07T00:26:59.389Z,100677.50
2022-08-07T00:30:06.170Z,100680.38
2022-08-07T00:33:28.348Z,100685.97
2022-08-07T00:36:35.711Z,100681.59
2022-08-07T00:39:44.826Z,100686.03
2022-08-07T00:42:50.216Z,100685.16
2022-08-07T00:45:52.963Z,100694.47
2022-08-07T00:48:56.638Z,100691.84
2022-08-07T00:52:09.880Z,100698.22
2022-08-07T00:55:12.806Z,100694.56
2022-08-07T00:58:21.421Z,100684.66
2022-08-07T01:01:24.808Z,100683.81
2022-08-07T01:04:27.400Z,100679.12
2022-08-07T01:07:33.200Z,100680.06
2022-08-07T01:10:36.298Z,100682.78
2022-08-07T01:13:39.666Z,100688.13
2022-08-07T01:16:58.655Z,100680.78
2022-08-07T01:20:09.075Z,100683.53
2022-08-07T01:23:13.117Z,100676.25
2022-08-07T01:26:20.280Z,100678.06
2022-08-07T01:29:27.844Z,100678.97
2022-08-07T01:32:34.835Z,100679.03
2022-08-07T01:35:53.990Z,100692.78
2022-08-07T01:38:58.668Z,100677.41
2022-08-07T01:42:37.197Z,100684.66
2022-08-07T01:45:37.063Z,100688.34
2022-08-07T01:48:47.605Z,100676.44
2022-08-07T01:52:02.604Z,100684.63
2022-08-07T01:55:08.767Z,100681.91
2022-08-07T01:58:33.181Z,100674.50
2022-08-07T02:02:02.298Z,100673.63
2022-08-07T02:05:08.888Z,100677.91
2022-08-07T02:08:23.674Z,100678.72
2022-08-07T02:11:30.811Z,100682.38
2022-08-07T02:14:53.683Z,100678.66
2022-08-07T02:18:00.122Z,100692.16
2022-08-07T02:21:06.445Z,100684.81
2022-08-07T02:24:11.069Z,100686.59
2022-08-07T02:27:22.773Z,100687.31
2022-08-07T02:30:27.339Z,100695.41
2022-08-07T02:33:41.989Z,100686.34
2022-08-07T02:36:53.986Z,100680.87
2022-08-07T02:40:02.454Z,100687.31
2022-08-07T02:43:22.973Z,100684.56
2022-08-07T02:46:27.869Z,100679.19
2022-08-07T02:49:57.585Z,100679.03
2022-08-07T02:53:06.374Z,100674.63
2022-08-07T02:56:20.993Z,100671.03
2022-08-07T02:59:27.436Z,100663.03
2022-08-07T03:02:31.587Z,100663.87
2022-08-07T03:05:37.204Z,100665.78
2022-08-07T03:08:41.743Z,100663.94
2022-08-07T03:11:52.379Z,100658.38
2022-08-07T03:15:02.286Z,100650.50
2022-08-07T03:18:11.525Z,100668.59
2022-08-07T03:21:20.778Z,100666.72
2022-08-07T03:24:27.452Z,100662.16
2022-08-07T03:27:59.235Z,100655.78
2022-08-07T03:31:15.243Z,100654.03
2022-08-07T03:34:22.283Z,100652.22
2022-08-07T03:37:27.651Z,100653.06
2022-08-07T03:40:36.501Z,100652.06
2022-08-07T03:43:44.057Z,100649.19
2022-08-07T03:47:11.300Z,100645.72
2022-08-07T03:50:23.266Z,100651.22
2022-08-07T03:53:30.350Z,100649.19
2022-08-07T03:57:03.919Z,100653.78
2022-08-07T04:00:12.148Z,100645.56
2022-08-07T04:03:18.106Z,100650.91
2022-08-07T04:06:37.460Z,100658.09
2022-08-07T04:09:45.563Z,100657.03
2022-08-07T04:12:54.274Z,100667.03
2022-08-07T04:15:58.583Z,100658.69
2022-08-07T04:19:12.791Z,100659.41
2022-08-07T04:22:19.724Z,100656.69
2022-08-07T04:25:29.115Z,100653.81
2022-08-07T04:28:33.879Z,100655.81
2022-08-07T04:32:03.230Z,100659.25
2022-08-07T04:35:05.350Z,100661.19
2022-08-07T04:38:13.230Z,100667.37
2022-08-07T04:41:18.358Z,100669.22
2022-08-07T04:44:23.713Z,100670.03
2022-08-07T04:48:10.678Z,100677.31
2022-08-07T04:51:27.727Z,100680.81
2022-08-07T04:54:50.523Z,100678.00
2022-08-07T04:58:33.842Z,100671.44
2022-08-07T05:01:50.617Z,100680.31
2022-08-07T05:05:00.513Z,100676.53
2022-08-07T05:08:06.572Z,100677.31
2022-08-07T05:11:19.719Z,100682.47
2022-08-07T05:14:53.755Z,100687.94
2022-08-07T05:18:12.318Z,100690.09
2022-08-07T05:21:59.403Z,100689.97
2022-08-07T05:24:43.987Z,100685.16
2022-08-07T05:28:16.189Z,100693.88
2022-08-07T05:31:14.664Z,100694.66
2022-08-07T05:34:20.078Z,100704.50
2022-08-07T05:37:30.585Z,100705.69
2022-08-07T05:40:50.477Z,100698.22
2022-08-07T05:44:11.810Z,100696.44
2022-08-07T05:47:19.973Z,100698.41
2022-08-07T05:50:24.419Z,100701.00
2022-08-07T05:54:12.054Z,100705.56
2022-08-07T05:56:51.326Z,100710.00
2022-08-07T05:59:57.132Z,100710.91
2022-08-07T06:03:02.002Z,100718.87
2022-08-07T06:06:09.451Z,100712.81
2022-08-07T06:09:12.797Z,100709.78
2022-08-07T06:12:16.672Z,100711.97
2022-08-07T06:15:39.380Z,100708.34
2022-08-07T06:18:51.786Z,100718.28
2022-08-07T06:22:14.327Z,100712.56
2022-08-07T06:25:23.536Z,100710.59
2022-08-07T06:28:29.758Z,100714.84
2022-08-07T06:31:46.743Z,100713.75
2022-08-07T06:34:53.142Z,100710.41
2022-08-07T06:37:58.229Z,100720.56
2022-08-07T06:41:07.098Z,100717.50
2022-08-07T06:44:14.942Z,100726.06
2022-08-07T06:47:22.468Z,100722.13
2022-08-07T06:50:26.814Z,100725.25
2022-08-07T06:55:29.815Z,100709.16
2022-08-07T06:56:59.484Z,100702.16
2022-08-07T07:00:12.996Z,100711.87
2022-08-07T07:03:39.582Z,100717.31
2022-08-07T07:07:00.683Z,100718.69
2022-08-07T07:10:05.637Z,100717.06
2022-08-07T07:13:15.054Z,100720.25
2022-08-07T07:16:19.835Z,100716.91
2022-08-07T07:19:55.874Z,100722.38
2022-08-07T07:24:08.908Z,100717.06
2022-08-07T07:26:34.728Z,100709.38
2022-08-07T07:30:09.103Z,100711.66
2022-08-07T07:33:11.718Z,100724.53
2022-08-07T07:36:17.369Z,100711.50
2022-08-07T07:39:22.114Z,100714.56
2022-08-07T07:42:33.227Z,100722.50
2022-08-07T07:46:40.172Z,100718.94
2022-08-07T07:49:09.109Z,100714.53
2022-08-07T07:52:24.397Z,100714.09
2022-08-07T07:55:37.717Z,100721.06
2022-08-07T07:58:48.620Z,100713.47
2022-08-07T08:02:04.733Z,100719.56
2022-08-07T08:05:15.046Z,100721.09
2022-08-07T08:08:34.960Z,100721.19
2022-08-07T08:11:59.749Z,100707.38
2022-08-07T08:15:02.116Z,100715.00
2022-08-07T08:18:17.968Z,100719.09
2022-08-07T08:21:55.696Z,100716.75
2022-08-07T08:25:27.059Z,100717.53
2022-08-07T08:28:45.682Z,100725.81
2022-08-07T08:32:17.288Z,100725.25
2022-08-07T08:35:17.464Z,100714.78
2022-08-07T08:38:25.930Z,100711.53
2022-08-07T08:42:12.088Z,100719.28
2022-08-07T08:45:58.424Z,100714.78
2022-08-07T08:49:10.749Z,100728.81
2022-08-07T08:52:30.318Z,100720.31
2022-08-07T08:55:55.535Z,100722.88
2022-08-07T08:59:20.595Z,100727.34
2022-08-07T09:02:40.461Z,100731.13
2022-08-07T09:06:06.577Z,100729.94
2022-08-07T09:09:33.187Z,100722.50
2022-08-07T09:12:39.417Z,100723.72
2022-08-07T09:16:20.566Z,100713.31
2022-08-07T09:19:50.882Z,100722.13
2022-08-07T09:24:31.602Z,100711.97
2022-08-07T09:26:47.678Z,100704.22
2022-08-07T09:30:04.319Z,100705.84
2022-08-07T09:33:57.252Z,100711.63
2022-08-07T09:37:20.951Z,100707.09
2022-08-07T09:41:03.549Z,100697.38
2022-08-07T09:44:19.229Z,100697.38
2022-08-07T09:47:50.444Z,100695.44
2022-08-07T09:51:14.782Z,100690.75
2022-08-07T09:54:45.529Z,100695.69
2022-08-07T09:58:13.159Z,100692.22
2022-08-07T10:01:51.200Z,100684.09
2022-08-07T10:05:58.986Z,100678.41
2022-08-07T10:09:07.852Z,100680.13
2022-08-07T10:12:52.696Z,100679.78
2022-08-07T10:16:05.080Z,100677.81
2022-08-07T10:19:16.311Z,100675.94
2022-08-07T10:22:45.319Z,100667.22
2022-08-07T10:26:17.674Z,100665.34
2022-08-07T10:30:12.204Z,100667.28
2022-08-07T10:34:06.968Z,100637.37
2022-08-07T10:37:18.785Z,100666.81
2022-08-07T10:40:38.947Z,100665.47
2022-08-07T10:44:28.715Z,100659.38
2022-08-07T10:48:03.294Z,100662.28
2022-08-07T10:51:16.763Z,100655.62
2022-08-07T10:54:42.491Z,100655.47
2022-08-07T10:57:58.998Z,100662.19
2022-08-07T11:01:35.847Z,100658.81
2022-08-07T11:05:13.086Z,100667.84
2022-08-07T11:08:30.514Z,100657.25
2022-08-07T11:11:37.682Z,100656.97
2022-08-07T11:15:00.752Z,100659.53
2022-08-07T11:18:17.664Z,100647.91
2022-08-07T11:21:47.076Z,100654.91
2022-08-07T11:25:19.682Z,100654.31
2022-08-07T11:28:39.268Z,100648.91
2022-08-07T11:31:54.260Z,100646.25
2022-08-07T11:34:59.826Z,100650.59
2022-08-07T11:38:29.093Z,100644.34
2022-08-07T11:42:01.646Z,100638.38
2022-08-07T11:45:06.492Z,100632.97
2022-08-07T11:48:30.145Z,100631.91
2022-08-07T11:51:46.757Z,100635.75
2022-08-07T11:55:01.944Z,100628.34
2022-08-07T11:58:20.876Z,100632.03
2022-08-07T12:01:59.403Z,100622.28
2022-08-07T12:05:28.704Z,100626.91
2022-08-07T12:08:55.014Z,100625.69
2022-08-07T12:12:12.265Z,100631.69
2022-08-07T12:15:57.963Z,100618.75
2022-08-07T12:18:58.228Z,100618.91
2022-08-07T12:22:37.583Z,100617.97
2022-08-07T12:26:05.701Z,100613.03
2022-08-07T12:29:38.333Z,100598.78
2022-08-07T12:32:49.095Z,100596.34
2022-08-07T12:35:57.936Z,100595.47
2022-08-07T12:39:41.151Z,100588.31
2022-08-07T12:42:32.143Z,100579.69
2022-08-07T12:45:53.217Z,100573.00
2022-08-07T12:49:09.758Z,100572.41
2022-08-07T12:53:01.283Z,100571.19
2022-08-07T12:56:12.433Z,100560.50
2022-08-07T12:59:23.194Z,100561.72
2022-08-07T13:03:08.234Z,100555.50
2022-08-07T13:06:27.599Z,100557.97
2022-08-07T13:10:28.550Z,100556.94
2022-08-07T13:13:53.811Z,100555.28
2022-08-07T13:17:21.369Z,100540.59
2022-08-07T13:20:30.351Z,100549.56
2022-08-07T13:24:00.608Z,100534.84
2022-08-07T13:28:05.641Z,100534.53
2022-08-07T13:31:13.505Z,100538.16
2022-08-07T13:34:34.292Z,100538.47
2022-08-07T13:37:58.486Z,100542.59
2022-08-07T13:41:24.375Z,100527.12
2022-08-07T13:44:36.811Z,100524.47
2022-08-07T13:48:06.945Z,100522.47
2022-08-07T13:51:26.810Z,100521.81
2022-08-07T13:54:33.563Z,100510.56
2022-08-07T13:57:39.619Z,100503.28
2022-08-07T14:01:11.447Z,100509.56
2022-08-07T14:04:21.301Z,100502.50
2022-08-07T14:07:28.200Z,100495.00
2022-08-07T14:10:42.273Z,100502.31
2022-08-07T14:13:55.959Z,100496.53
2022-08-07T14:17:32.022Z,100485.78
2022-08-07T14:20:43.428Z,100491.63
2022-08-07T14:24:14.222Z,100483.44
2022-08-07T14:28:11.255Z,100469.66
2022-08-07T14:30:51.955Z,100470.00
2022-08-07T14:33:55.964Z,100469.66
2022-08-07T14:37:03.225Z,100468.28
2022-08-07T14:40:15.607Z,100468.28
2022-08-07T14:43:55.070Z,100471.84
2022-08-07T14:50:18.895Z,100454.91
2022-08-07T14:53:49.590Z,100455.50
2022-08-07T14:56:48.040Z,100455.84
2022-08-07T15:00:03.172Z,100453.84
2022-08-07T15:03:16.659Z,100453.53
2022-08-07T15:06:26.127Z,100452.78
2022-08-07T15:09:57.429Z,100447.88
2022-08-07T15:12:58.828Z,100447.63
2022-08-07T15:16:11.428Z,100429.31
2022-08-07T15:19:19.978Z,100431.19
2022-08-07T15:22:53.690Z,100417.97
2022-08-07T15:25:57.813Z,100422.03
2022-08-07T15:30:08.843Z,100429.00
2022-08-07T15:36:02.008Z,100432.38
2022-08-07T15:39:12.396Z,100423.81
2022-08-07T15:42:43.839Z,100422.97
2022-08-07T15:45:57.283Z,100424.19
2022-08-07T15:49:12.745Z,100423.75
2022-08-07T15:52:30.033Z,100418.91
2022-08-07T15:55:53.589Z,100419.13
2022-08-07T15:59:00.563Z,100418.38
2022-08-07T16:02:04.391Z,100420.34
2022-08-07T16:05:15.499Z,100417.28
2022-08-07T16:08:31.124Z,100418.16
2022-08-07T16:12:00.102Z,100415.16
2022-08-07T16:15:54.413Z,100414.72
2022-08-07T16:19:03.969Z,100417.50
2022-08-07T16:22:54.969Z,100422.44
2022-08-07T16:26:01.916Z,100423.78
2022-08-07T16:30:07.683Z,100418.38
2022-08-07T16:32:54.525Z,100413.19
2022-08-07T16:36:31.362Z,100415.94
2022-08-07T16:40:28.307Z,100410.22
2022-08-07T16:44:03.727Z,100405.47
2022-08-07T16:47:52.966Z,100410.31
2022-08-07T16:51:54.395Z,100426.19
2022-08-07T16:55:03.124Z,100413.50
2022-08-07T16:58:18.361Z,100410.84
2022-08-07T17:01:41.376Z,100419.97
2022-08-07T17:04:58.880Z,100415.91
2022-08-07T17:08:02.099Z,100405.12
2022-08-07T17:11:14.357Z,100407.84
2022-08-07T17:14:41.568Z,100412.66
2022-08-07T17:17:55.754Z,100419.00
2022-08-07T17:21:02.845Z,100425.62
2022-08-07T17:24:40.431Z,100425.56
2022-08-07T17:28:14.533Z,100421.25
2022-08-07T17:31:44.388Z,100420.19
2022-08-07T17:35:51.743Z,100428.53
2022-08-07T17:38:50.722Z,100434.19
2022-08-07T17:42:03.505Z,100439.88
2022-08-07T17:45:17.821Z,100439.47
2022-08-07T17:48:31.225Z,100448.38
2022-08-07T17:52:00.811Z,100444.56
2022-08-07T17:55:12.512Z,100449.28
2022-08-07T17:58:30.551Z,100444.41
2022-08-07T18:01:37.382Z,100446.47
2022-08-07T18:05:21.718Z,100448.06
2022-08-07T18:08:31.030Z,100455.00
2022-08-07T18:12:07.606Z,100460.06
2022-08-07T18:15:32.745Z,100462.38
2022-08-07T18:21:10.229Z,100459.81
2022-08-07T18:22:26.342Z,100469.31
2022-08-07T18:25:40.239Z,100468.44
2022-08-07T18:28:57.809Z,100468.56
2022-08-07T18:32:10.636Z,100479.62
2022-08-07T18:35:51.762Z,100468.56
2022-08-07T18:40:08.671Z,100485.78
2022-08-07T18:42:44.799Z,100491.50
2022-08-07T18:46:34.014Z,100491.69
2022-08-07T18:50:33.149Z,100499.22
2022-08-07T18:53:45.408Z,100496.56
2022-08-07T18:56:58.334Z,100503.91
2022-08-07T19:00:34.570Z,100515.59
2022-08-07T19:03:49.738Z,100502.66
2022-08-07T19:06:57.947Z,100511.97
2022-08-07T19:10:12.095Z,100511.44
2022-08-07T19:13:27.502Z,100514.34
2022-08-07T19:17:01.130Z,100515.78
2022-08-07T19:20:25.019Z,100522.16
2022-08-07T19:23:57.882Z,100531.13
2022-08-07T19:28:28.547Z,100531.41
2022-08-07T19:31:06.200Z,100527.34
2022-08-07T19:34:00.335Z,100532.31
2022-08-07T19:37:10.221Z,100537.88
2022-08-07T19:40:30.845Z,100530.72
2022-08-07T19:43:43.932Z,100537.97
2022-08-07T19:46:57.758Z,100534.16
2022-08-07T19:50:41.299Z,100538.69
2022-08-07T19:54:31.491Z,100538.69
2022-08-07T19:58:02.228Z,100551.50
2022-08-07T20:00:28.814Z,100561.50
2022-08-07T20:03:36.417Z,100572.47
2022-08-07T20:06:43.092Z,100573.63
2022-08-07T20:10:36.181Z,100572.66
2022-08-07T20:13:23.470Z,100578.38
2022-08-07T20:16:34.697Z,100576.03
2022-08-07T20:19:47.949Z,100576.63
2022-08-07T20:23:10.999Z,100583.06
2022-08-07T20:26:38.636Z,100580.75
2022-08-07T20:29:57.476Z,100578.47
2022-08-07T20:33:03.999Z,100584.16
2022-08-07T20:36:08.296Z,100590.13
2022-08-07T20:39:30.975Z,100606.22
2022-08-07T20:42:47.445Z,100583.28
2022-08-07T20:46:28.294Z,100584.56
2022-08-07T20:49:59.716Z,100594.13
2022-08-07T20:52:50.568Z,100617.34
2022-08-07T20:55:57.267Z,100614.41
2022-08-07T20:59:05.180Z,100608.72
2022-08-07T21:02:35.814Z,100606.56
2022-08-07T21:05:54.412Z,100601.50
2022-08-07T21:09:14.192Z,100592.84
2022-08-07T21:12:25.991Z,100583.81
2022-08-07T21:15:58.260Z,100583.69
2022-08-07T21:18:58.227Z,100586.75
2022-08-07T21:22:05.913Z,100580.75
2022-08-07T21:26:01.345Z,100584.75
2022-08-07T21:29:15.652Z,100586.97
2022-08-07T21:32:46.701Z,100585.19
2022-08-07T21:36:11.623Z,100588.94
2022-08-07T21:39:45.252Z,100589.50
2022-08-07T21:43:00.114Z,100592.28
2022-08-07T21:46:24.513Z,100593.06
2022-08-07T21:50:00.592Z,100586.44
2022-08-07T21:53:28.808Z,100595.09
2022-08-07T21:56:47.003Z,100603.47
2022-08-07T22:00:22.826Z,100598.56
2022-08-07T22:03:40.191Z,100593.44
2022-08-07T22:06:55.747Z,100592.06
2022-08-07T22:10:03.968Z,100586.72
2022-08-07T22:13:13.736Z,100595.97
2022-08-07T22:16:39.028Z,100597.28
2022-08-07T22:20:41.119Z,100601.25
2022-08-07T22:23:59.876Z,100595.94
2022-08-07T22:27:21.029Z,100603.34
2022-08-07T22:30:52.650Z,100599.78
2022-08-07T22:34:00.027Z,100593.75
2022-08-07T22:37:16.006Z,100592.06
2022-08-07T22:40:46.636Z,100603.09
2022-08-07T22:43:56.152Z,100605.09
2022-08-07T22:47:35.828Z,100602.72
2022-08-07T22:50:50.924Z,100599.87
2022-08-07T22:54:11.716Z,100592.00
2022-08-07T22:57:40.974Z,100588.91
2022-08-07T23:01:18.049Z,100599.91
2022-08-07T23:04:58.563Z,100591.84
2022-08-07T23:08:30.591Z,100586.19
2022-08-07T23:11:51.187Z,100605.78
2022-08-07T23:15:09.694Z,100600.88
2022-08-07T23:18:32.350Z,100592.94
2022-08-07T23:21:43.424Z,100592.66
2022-08-07T23:24:48.657Z,100596.22
2022-08-07T23:28:22.500Z,100605.16
2022-08-07T23:34:21.804Z,100603.16
2022-08-07T23:35:24.125Z,100599.41
2022-08-07T23:38:56.781Z,100603.94
2022-08-07T23:42:26.145Z,100608.44
2022-08-07T23:46:02.717Z,100612.09
2022-08-07T23:49:15.875Z,100597.75
2022-08-07T23:53:00.145Z,100606.00
2022-08-07T23:56:06.022Z,100593.53
